Chemical Pioneer — KAFO — position and weather

sailwx.info

Track history (hours):
 
Tides and Currents Weather Stations Pressure Air Temp Water Temp Dewpoint Dewpoint Depression Visibility Wind Speed Wind Dir Waves Ship Positions

Chemical Pioneer

Owner: US Shipping Corp, Edison, NJ. More information available from US FCC via Universal Licensing System and Coast Guard Vessel Documentation Center.

Last reported at 2014-Oct-17 00:23 UTC. Time now 2014-Oct-25 02:45 UTC.
Position N 29°21' W 094°42'.
Warning: this ship's position is 8 days out of date.

Type: Tanker. MMSI: 366032000.

Date/timePositionNaut miles runAvg speedWind from/ knotsBaromVisibWave heightAir tempDewpointWater temp
2014-Oct-17 00:23N 29°21' W 094°42'910.7
2014-Oct-16 23:33N 29°23' W 094°52'3 0.2
2014-Oct-16 07:33N 29°22' W 094°55'3 3.5
2014-Oct-16 06:33N 29°22' W 094°51'1312.8
2014-Oct-16 05:33N 29°18' W 094°37'3 3.1
2014-Oct-16 04:31N 29°15' W 094°38'0 0.0
2014-Oct-16 02:07N 29°15' W 094°38'0 0.0
2014-Oct-16 01:28N 29°15' W 094°38'0 0.0
2014-Oct-15 15:31N 29°15' W 094°38'0 0.0
2014-Oct-15 14:22N 29°15' W 094°38'0 0.0
2014-Oct-15 11:10N 29°15' W 094°38'0 0.0
2014-Oct-15 09:28N 29°15' W 094°38'0 0.0
2014-Oct-15 08:31N 29°15' W 094°38'0 0.0
2014-Oct-15 06:31N 29°15' W 094°38'0 0.0
2014-Oct-15 05:31N 29°15' W 094°38'0 0.0
2014-Oct-15 04:25N 29°15' W 094°38'0 0.0
2014-Oct-15 02:04N 29°15' W 094°38'0 0.0
2014-Oct-14 14:16N 29°15' W 094°38'0 0.0
2014-Oct-14 13:25N 29°15' W 094°38'0 0.0
2014-Oct-14 12:28N 29°15' W 094°38'0 0.0
2014-Oct-14 11:25N 29°15' W 094°38'0 0.0
2014-Oct-14 10:28N 29°15' W 094°38'0 0.0
2014-Oct-14 00:32N 29°15' W 094°38'65315.4
2014-Oct-12 06:00N 24°36' W 083°36'18615.5 080 / 81013.0 5.4 0.527.223.029.4
2014-Oct-11 18:00N 24°54' W 080°12'3715.4 060 / 101013.210.8 0.530.024.028.9
2014-Oct-11 15:33N 25°30' W 080°01'1514.6
2014-Oct-11 14:33N 25°45' W 080°01'1615.9
2014-Oct-11 13:33N 26°01' W 080°03'6 5.4
2014-Oct-11 12:26N 26°06' W 080°07'0 0.0
2014-Oct-11 11:26N 26°06' W 080°07'0 0.0
2014-Oct-11 10:29N 26°06' W 080°07'0 0.0
2014-Oct-11 09:29N 26°06' W 080°07'0 0.0
2014-Oct-11 08:29N 26°06' W 080°07'0 0.0
2014-Oct-11 07:32N 26°06' W 080°07'0 0.0
2014-Oct-11 06:29N 26°06' W 080°07'0 0.0
2014-Oct-11 05:32N 26°06' W 080°07'0 0.0
2014-Oct-11 04:29N 26°06' W 080°07'0 0.0
2014-Oct-11 03:32N 26°06' W 080°07'0 0.0
2014-Oct-11 02:32N 26°06' W 080°07'0 0.0
2014-Oct-11 01:32N 26°06' W 080°07'0 0.0
2014-Oct-11 00:23N 26°06' W 080°07'0 0.0
2014-Oct-10 23:26N 26°06' W 080°07'0 0.0
2014-Oct-10 22:26N 26°06' W 080°07'0 0.0
2014-Oct-10 21:26N 26°06' W 080°07'0 0.0
2014-Oct-10 20:33N 26°06' W 080°07'4 4.4
2014-Oct-10 19:33N 26°06' W 080°02'5 4.7
2014-Oct-10 18:33N 26°10' W 080°00'8 7.8
2014-Oct-10 17:33N 26°02' W 080°00'8 7.8
2014-Oct-10 16:33N 25°55' W 080°00'2 1.9
2014-Oct-10 15:33N 25°55' W 080°02'6 6.2
2014-Oct-10 14:33N 26°01' W 080°01'6 6.0
2014-Oct-10 13:33N 26°07' W 080°01'6 5.8
2014-Oct-10 12:33N 26°13' W 079°60'6 5.6
2014-Oct-10 11:33N 26°18' W 079°58'3 3.1
2014-Oct-10 10:33N 26°21' W 079°60'7 6.7
2014-Oct-10 09:34N 26°15' W 080°00'7 7.0
2014-Oct-10 08:33N 26°08' W 080°01'8 8.0
2014-Oct-10 07:33N 25°60' W 080°01'7 7.1
2014-Oct-10 06:33N 25°53' W 080°00'4 4.3
2014-Oct-10 05:33N 25°56' W 080°03'6 6.2
2014-Oct-10 04:33N 26°02' W 080°02'7 6.7
2014-Oct-10 03:33N 26°09' W 080°01'7 7.0
2014-Oct-10 02:33N 26°16' W 080°01'6 6.1
2014-Oct-10 01:33N 26°22' W 079°59'3 2.6
2014-Oct-10 00:33N 26°19' W 079°59'7 7.3
2014-Oct-09 23:33N 26°12' W 080°01'7 6.9
2014-Oct-09 22:33N 26°05' W 080°02'7 7.3
2014-Oct-09 21:33N 25°58' W 080°02'6 6.2
2014-Oct-09 20:33N 25°52' W 080°02'6 6.1
2014-Oct-09 19:33N 25°58' W 080°02'6 6.5
2014-Oct-09 18:33N 26°04' W 080°01'8 7.7
2014-Oct-09 17:33N 26°12' W 080°01'7 7.1
2014-Oct-09 16:33N 26°19' W 079°60'5 5.2
2014-Oct-09 15:33N 26°24' W 079°59'5 5.3
2014-Oct-09 14:33N 26°19' W 079°59'7 7.0
2014-Oct-09 13:33N 26°12' W 079°59'7 7.0
2014-Oct-09 12:33N 26°05' W 079°59'8 7.7
2014-Oct-09 11:33N 25°57' W 079°59'6 5.5
2014-Oct-09 10:33N 25°52' W 080°00'4 4.2
2014-Oct-09 09:33N 25°56' W 080°01'3 3.1
2014-Oct-09 08:33N 25°59' W 080°02'3 3.1
2014-Oct-09 07:33N 26°02' W 080°01'9 9.3
2014-Oct-09 06:33N 26°11' W 080°01'1313.5
2014-Oct-09 05:33N 26°24' W 079°59'1313.1
2014-Oct-09 04:33N 26°37' W 079°58'1312.7
2014-Oct-09 03:33N 26°50' W 079°56'1212.4
2014-Oct-09 02:33N 27°02' W 079°56'  
Track history (hours):
 
Tides and Currents Weather Stations Pressure Air Temp Water Temp Dewpoint Dewpoint Depression Visibility Wind Speed Wind Dir Waves Ship Positions

Chemical Pioneer

Owner: US Shipping Corp, Edison, NJ. More information available from US FCC via Universal Licensing System and Coast Guard Vessel Documentation Center.

Last reported at 2014-Oct-17 00:23 UTC. Time now 2014-Oct-25 02:45 UTC.
Position N 29°21' W 094°42'.
Warning: this ship's position is 8 days out of date.

Type: Tanker. MMSI: 366032000.

Date/timePositionNaut miles runAvg speedWind from/ knotsBaromVisibWave heightAir tempDewpointWater temp
2014-Oct-17 00:23N 29°21' W 094°42'910.7
2014-Oct-16 23:33N 29°23' W 094°52'3 0.2
2014-Oct-16 07:33N 29°22' W 094°55'3 3.5
2014-Oct-16 06:33N 29°22' W 094°51'1312.8
2014-Oct-16 05:33N 29°18' W 094°37'3 3.1
2014-Oct-16 04:31N 29°15' W 094°38'0 0.0
2014-Oct-16 02:07N 29°15' W 094°38'0 0.0
2014-Oct-16 01:28N 29°15' W 094°38'0 0.0
2014-Oct-15 15:31N 29°15' W 094°38'0 0.0
2014-Oct-15 14:22N 29°15' W 094°38'0 0.0
2014-Oct-15 11:10N 29°15' W 094°38'0 0.0
2014-Oct-15 09:28N 29°15' W 094°38'0 0.0
2014-Oct-15 08:31N 29°15' W 094°38'0 0.0
2014-Oct-15 06:31N 29°15' W 094°38'0 0.0
2014-Oct-15 05:31N 29°15' W 094°38'0 0.0
2014-Oct-15 04:25N 29°15' W 094°38'0 0.0
2014-Oct-15 02:04N 29°15' W 094°38'0 0.0
2014-Oct-14 14:16N 29°15' W 094°38'0 0.0
2014-Oct-14 13:25N 29°15' W 094°38'0 0.0
2014-Oct-14 12:28N 29°15' W 094°38'0 0.0
2014-Oct-14 11:25N 29°15' W 094°38'0 0.0
2014-Oct-14 10:28N 29°15' W 094°38'0 0.0
2014-Oct-14 00:32N 29°15' W 094°38'65315.4
2014-Oct-12 06:00N 24°36' W 083°36'18615.5 080 / 81013.0 5.4 0.527.223.029.4
2014-Oct-11 18:00N 24°54' W 080°12'3715.4 060 / 101013.210.8 0.530.024.028.9
2014-Oct-11 15:33N 25°30' W 080°01'1514.6
2014-Oct-11 14:33N 25°45' W 080°01'1615.9
2014-Oct-11 13:33N 26°01' W 080°03'6 5.4
2014-Oct-11 12:26N 26°06' W 080°07'0 0.0
2014-Oct-11 11:26N 26°06' W 080°07'0 0.0
2014-Oct-11 10:29N 26°06' W 080°07'0 0.0
2014-Oct-11 09:29N 26°06' W 080°07'0 0.0
2014-Oct-11 08:29N 26°06' W 080°07'0 0.0
2014-Oct-11 07:32N 26°06' W 080°07'0 0.0
2014-Oct-11 06:29N 26°06' W 080°07'0 0.0
2014-Oct-11 05:32N 26°06' W 080°07'0 0.0
2014-Oct-11 04:29N 26°06' W 080°07'0 0.0
2014-Oct-11 03:32N 26°06' W 080°07'0 0.0
2014-Oct-11 02:32N 26°06' W 080°07'0 0.0
2014-Oct-11 01:32N 26°06' W 080°07'0 0.0
2014-Oct-11 00:23N 26°06' W 080°07'0 0.0
2014-Oct-10 23:26N 26°06' W 080°07'0 0.0
2014-Oct-10 22:26N 26°06' W 080°07'0 0.0
2014-Oct-10 21:26N 26°06' W 080°07'0 0.0
2014-Oct-10 20:33N 26°06' W 080°07'4 4.4
2014-Oct-10 19:33N 26°06' W 080°02'5 4.7
2014-Oct-10 18:33N 26°10' W 080°00'8 7.8
2014-Oct-10 17:33N 26°02' W 080°00'8 7.8
2014-Oct-10 16:33N 25°55' W 080°00'2 1.9
2014-Oct-10 15:33N 25°55' W 080°02'6 6.2
2014-Oct-10 14:33N 26°01' W 080°01'6 6.0
2014-Oct-10 13:33N 26°07' W 080°01'6 5.8
2014-Oct-10 12:33N 26°13' W 079°60'6 5.6
2014-Oct-10 11:33N 26°18' W 079°58'3 3.1
2014-Oct-10 10:33N 26°21' W 079°60'7 6.7
2014-Oct-10 09:34N 26°15' W 080°00'7 7.0
2014-Oct-10 08:33N 26°08' W 080°01'8 8.0
2014-Oct-10 07:33N 25°60' W 080°01'7 7.1
2014-Oct-10 06:33N 25°53' W 080°00'4 4.3
2014-Oct-10 05:33N 25°56' W 080°03'6 6.2
2014-Oct-10 04:33N 26°02' W 080°02'7 6.7
2014-Oct-10 03:33N 26°09' W 080°01'7 7.0
2014-Oct-10 02:33N 26°16' W 080°01'6 6.1
2014-Oct-10 01:33N 26°22' W 079°59'3 2.6
2014-Oct-10 00:33N 26°19' W 079°59'7 7.3
2014-Oct-09 23:33N 26°12' W 080°01'7 6.9
2014-Oct-09 22:33N 26°05' W 080°02'7 7.3
2014-Oct-09 21:33N 25°58' W 080°02'6 6.2
2014-Oct-09 20:33N 25°52' W 080°02'6 6.1
2014-Oct-09 19:33N 25°58' W 080°02'6 6.5
2014-Oct-09 18:33N 26°04' W 080°01'8 7.7
2014-Oct-09 17:33N 26°12' W 080°01'7 7.1
2014-Oct-09 16:33N 26°19' W 079°60'5 5.2
2014-Oct-09 15:33N 26°24' W 079°59'5 5.3
2014-Oct-09 14:33N 26°19' W 079°59'7 7.0
2014-Oct-09 13:33N 26°12' W 079°59'7 7.0
2014-Oct-09 12:33N 26°05' W 079°59'8 7.7
2014-Oct-09 11:33N 25°57' W 079°59'6 5.5
2014-Oct-09 10:33N 25°52' W 080°00'4 4.2
2014-Oct-09 09:33N 25°56' W 080°01'3 3.1
2014-Oct-09 08:33N 25°59' W 080°02'3 3.1
2014-Oct-09 07:33N 26°02' W 080°01'9 9.3
2014-Oct-09 06:33N 26°11' W 080°01'1313.5
2014-Oct-09 05:33N 26°24' W 079°59'1313.1
2014-Oct-09 04:33N 26°37' W 079°58'1312.7
2014-Oct-09 03:33N 26°50' W 079°56'1212.4
2014-Oct-09 02:33N 27°02' W 079°56'  

Dump ship's entire track history